Platitera Tonouranon — SX7180 — position and weather

sailwx.info

Track history (hours):
 
Tides and Currents Weather Stations Pressure Air Temp Water Temp Dewpoint Dewpoint Depression Visibility Wind Speed Wind Dir Waves Ship Positions

Platitera Tonouranon

Last reported at 2015-Sep-04 16:33 UTC. Time now 2015-Sep-05 01:06 UTC.
Position N 37°54' E 023°39'.

Length 55 m; draft 3.8 m.

Type: Ship (hazmat cat A). MMSI: 237038200.

Date/timePositionNaut miles runAvg speedWind from/ knotsBaromVisibWave heightAir tempDewpointWater temp
2015-Sep-04 16:33N 37°54' E 023°39'1211.8
2015-Sep-04 15:33N 37°47' E 023°27'3 2.6
2015-Sep-04 14:33N 37°45' E 023°26'0 0.0
2015-Sep-04 13:32N 37°45' E 023°26'8 7.8
2015-Sep-04 12:32N 37°37' E 023°25'7 5.5
2015-Sep-04 11:16N 37°30' E 023°27'6 7.9
2015-Sep-04 10:32N 37°26' E 023°32'6 1.9
2015-Sep-04 07:33N 37°31' E 023°32'1211.9
2015-Sep-04 06:31N 37°44' E 023°34'1111.7
2015-Sep-04 05:33N 37°54' E 023°40'1 0.1
2015-Sep-03 16:34N 37°55' E 023°39'1211.9
2015-Sep-03 15:33N 37°47' E 023°27'3 1.2
2015-Sep-03 13:10N 37°45' E 023°26'6 9.1
2015-Sep-03 12:31N 37°39' E 023°26'12 6.1
2015-Sep-03 10:34N 37°28' E 023°31'7 3.5
2015-Sep-03 08:33N 37°21' E 023°28'1010.2
2015-Sep-03 07:33N 37°31' E 023°32'1211.8
2015-Sep-03 06:31N 37°43' E 023°34'1111.6
2015-Sep-03 05:34N 37°53' E 023°40'3 3.4
2015-Sep-03 04:34N 37°56' E 023°41'0 0.0
2015-Sep-02 17:12N 37°56' E 023°41'4 6.8
2015-Sep-02 16:33N 37°53' E 023°38'1211.8
2015-Sep-02 15:33N 37°46' E 023°25'2 0.9
2015-Sep-02 13:07N 37°44' E 023°25'14 6.9
2015-Sep-02 11:06N 37°30' E 023°27'5 9.6
2015-Sep-02 10:33N 37°26' E 023°32'6 6.1
2015-Sep-02 09:32N 37°21' E 023°28'0 0.0
2015-Sep-02 08:33N 37°21' E 023°28'2311.5
2015-Sep-02 06:33N 37°44' E 023°35'1211.7
2015-Sep-02 05:33N 37°55' E 023°39'2 2.0
2015-Sep-02 04:33N 37°56' E 023°41'0 0.0
2015-Sep-01 17:10N 37°56' E 023°41'3 5.5
2015-Sep-01 16:33N 37°53' E 023°39'1111.1
2015-Sep-01 15:33N 37°47' E 023°27'3 1.3
2015-Sep-01 13:14N 37°45' E 023°26'5 7.9
2015-Sep-01 12:33N 37°40' E 023°27'12 5.8
2015-Sep-01 10:33N 37°28' E 023°30'5 1.4
2015-Sep-01 07:19N 37°32' E 023°34'1012.3
2015-Sep-01 06:32N 37°41' E 023°35'1211.9
2015-Sep-01 05:33N 37°53' E 023°39'4 3.9
2015-Sep-01 04:33N 37°56' E 023°41'0 0.0
2015-Aug-31 19:12N 37°56' E 023°41'0 0.0
2015-Aug-31 18:33N 37°56' E 023°41'0 0.0
2015-Aug-31 17:33N 37°56' E 023°41'2 2.3
2015-Aug-31 16:33N 37°55' E 023°38'1211.6
2015-Aug-31 15:33N 37°48' E 023°27'3 1.4
2015-Aug-31 13:15N 37°45' E 023°26'810.9
2015-Aug-31 12:33N 37°37' E 023°28'7 5.1
2015-Aug-31 11:06N 37°30' E 023°27'5 7.9
2015-Aug-31 10:30N 37°27' E 023°32'15 3.7
2015-Aug-31 06:28N 37°42' E 023°35'1111.9
2015-Aug-31 05:33N 37°52' E 023°39'4 4.0
2015-Aug-31 04:33N 37°56' E 023°41'0 0.0
2015-Aug-30 17:13N 37°56' E 023°41'5 7.4
2015-Aug-30 16:33N 37°54' E 023°36'1211.5
2015-Aug-30 15:33N 37°46' E 023°25'1 0.9
2015-Aug-30 14:10N 37°45' E 023°26'0 0.0
2015-Aug-30 13:33N 37°45' E 023°26'9 8.9
2015-Aug-30 12:33N 37°36' E 023°25'6 4.3
2015-Aug-30 11:10N 37°30' E 023°27'5 8.7
2015-Aug-30 10:33N 37°26' E 023°32'8 2.3
2015-Aug-30 07:08N 37°34' E 023°35'712.5
2015-Aug-30 06:33N 37°41' E 023°35'1212.0
2015-Aug-30 05:33N 37°53' E 023°38'4 4.3
2015-Aug-30 04:34N 37°56' E 023°41'0 0.0
2015-Aug-29 17:30N 37°56' E 023°41'4 4.2
2015-Aug-29 16:33N 37°54' E 023°37'1211.6
2015-Aug-29 15:33N 37°47' E 023°26'2 0.8
2015-Aug-29 13:15N 37°45' E 023°25'911.5
2015-Aug-29 12:30N 37°36' E 023°26'9 1.6
2015-Aug-29 06:33N 37°41' E 023°36'1211.8
2015-Aug-29 05:33N 37°53' E 023°40'3 3.4
2015-Aug-29 04:33N 37°56' E 023°41'0 0.0
2015-Aug-28 16:33N 37°56' E 023°41'1111.4
2015-Aug-28 15:33N 37°49' E 023°30'11 3.6
2015-Aug-28 12:33N 37°39' E 023°25'15 6.6
2015-Aug-28 10:17N 37°25' E 023°31'5 6.1
2015-Aug-28 09:31N 37°21' E 023°28'0 0.0
2015-Aug-28 08:31N 37°21' E 023°28'1410.7
2015-Aug-28 07:10N 37°34' E 023°35'812.4
2015-Aug-28 06:32N 37°42' E 023°36'1211.9
2015-Aug-28 05:33N 37°54' E 023°38'3 3.5
2015-Aug-28 04:33N 37°56' E 023°41'0 0.0
2015-Aug-27 17:14N 37°56' E 023°41'6 8.5
2015-Aug-27 16:33N 37°53' E 023°35'1111.2
2015-Aug-27 15:33N 37°45' E 023°25'1 0.3
2015-Aug-27 13:27N 37°45' E 023°25'8 9.0
2015-Aug-27 12:33N 37°37' E 023°26'12 5.7
2015-Aug-27 10:29N 37°26' E 023°32'10 3.1
2015-Aug-27 07:22N 37°35' E 023°35'1012.3
2015-Aug-27 06:32N 37°45' E 023°36'1111.7
2015-Aug-27 05:33N 37°56' E 023°40'1 0.6
2015-Aug-27 04:33N 37°56' E 023°41'0 0.0
2015-Aug-26 17:34N 37°56' E 023°41'4 4.5
2015-Aug-26 16:34N 37°54' E 023°36'1211.6
2015-Aug-26 15:34N 37°46' E 023°25'1 0.6
2015-Aug-26 13:19N 37°45' E 023°26'810.8
2015-Aug-26 12:34N 37°37' E 023°26'10 5.0
2015-Aug-26 10:34N 37°28' E 023°32'14 3.4
2015-Aug-26 06:33N 37°41' E 023°36'1212.0
2015-Aug-26 05:34N 37°53' E 023°39'4 3.8
2015-Aug-26 04:34N 37°56' E 023°41'0 0.0
2015-Aug-26 03:34N 37°56' E 023°41'0 0.0
2015-Aug-26 02:33N 37°56' E 023°41'0 0.0
2015-Aug-26 01:33N 37°56' E 023°41'0 0.0
2015-Aug-26 00:34N 37°56' E 023°41'0 0.0
2015-Aug-25 23:34N 37°56' E 023°41'0 0.0
2015-Aug-25 22:34N 37°56' E 023°41'0 0.0
2015-Aug-25 21:34N 37°56' E 023°41'0 0.0
2015-Aug-25 20:34N 37°56' E 023°41'0 0.0
2015-Aug-25 19:34N 37°56' E 023°41'0 0.0
2015-Aug-25 18:33N 37°56' E 023°41'0 0.0
2015-Aug-25 17:34N 37°56' E 023°41'4 4.0
2015-Aug-25 16:34N 37°54' E 023°37'  
Track history (hours):
 
Tides and Currents Weather Stations Pressure Air Temp Water Temp Dewpoint Dewpoint Depression Visibility Wind Speed Wind Dir Waves Ship Positions

Platitera Tonouranon

Last reported at 2015-Sep-04 16:33 UTC. Time now 2015-Sep-05 01:06 UTC.
Position N 37°54' E 023°39'.

Length 55 m; draft 3.8 m.

Type: Ship (hazmat cat A). MMSI: 237038200.

Date/timePositionNaut miles runAvg speedWind from/ knotsBaromVisibWave heightAir tempDewpointWater temp
2015-Sep-04 16:33N 37°54' E 023°39'1211.8
2015-Sep-04 15:33N 37°47' E 023°27'3 2.6
2015-Sep-04 14:33N 37°45' E 023°26'0 0.0
2015-Sep-04 13:32N 37°45' E 023°26'8 7.8
2015-Sep-04 12:32N 37°37' E 023°25'7 5.5
2015-Sep-04 11:16N 37°30' E 023°27'6 7.9
2015-Sep-04 10:32N 37°26' E 023°32'6 1.9
2015-Sep-04 07:33N 37°31' E 023°32'1211.9
2015-Sep-04 06:31N 37°44' E 023°34'1111.7
2015-Sep-04 05:33N 37°54' E 023°40'1 0.1
2015-Sep-03 16:34N 37°55' E 023°39'1211.9
2015-Sep-03 15:33N 37°47' E 023°27'3 1.2
2015-Sep-03 13:10N 37°45' E 023°26'6 9.1
2015-Sep-03 12:31N 37°39' E 023°26'12 6.1
2015-Sep-03 10:34N 37°28' E 023°31'7 3.5
2015-Sep-03 08:33N 37°21' E 023°28'1010.2
2015-Sep-03 07:33N 37°31' E 023°32'1211.8
2015-Sep-03 06:31N 37°43' E 023°34'1111.6
2015-Sep-03 05:34N 37°53' E 023°40'3 3.4
2015-Sep-03 04:34N 37°56' E 023°41'0 0.0
2015-Sep-02 17:12N 37°56' E 023°41'4 6.8
2015-Sep-02 16:33N 37°53' E 023°38'1211.8
2015-Sep-02 15:33N 37°46' E 023°25'2 0.9
2015-Sep-02 13:07N 37°44' E 023°25'14 6.9
2015-Sep-02 11:06N 37°30' E 023°27'5 9.6
2015-Sep-02 10:33N 37°26' E 023°32'6 6.1
2015-Sep-02 09:32N 37°21' E 023°28'0 0.0
2015-Sep-02 08:33N 37°21' E 023°28'2311.5
2015-Sep-02 06:33N 37°44' E 023°35'1211.7
2015-Sep-02 05:33N 37°55' E 023°39'2 2.0
2015-Sep-02 04:33N 37°56' E 023°41'0 0.0
2015-Sep-01 17:10N 37°56' E 023°41'3 5.5
2015-Sep-01 16:33N 37°53' E 023°39'1111.1
2015-Sep-01 15:33N 37°47' E 023°27'3 1.3
2015-Sep-01 13:14N 37°45' E 023°26'5 7.9
2015-Sep-01 12:33N 37°40' E 023°27'12 5.8
2015-Sep-01 10:33N 37°28' E 023°30'5 1.4
2015-Sep-01 07:19N 37°32' E 023°34'1012.3
2015-Sep-01 06:32N 37°41' E 023°35'1211.9
2015-Sep-01 05:33N 37°53' E 023°39'4 3.9
2015-Sep-01 04:33N 37°56' E 023°41'0 0.0
2015-Aug-31 19:12N 37°56' E 023°41'0 0.0
2015-Aug-31 18:33N 37°56' E 023°41'0 0.0
2015-Aug-31 17:33N 37°56' E 023°41'2 2.3
2015-Aug-31 16:33N 37°55' E 023°38'1211.6
2015-Aug-31 15:33N 37°48' E 023°27'3 1.4
2015-Aug-31 13:15N 37°45' E 023°26'810.9
2015-Aug-31 12:33N 37°37' E 023°28'7 5.1
2015-Aug-31 11:06N 37°30' E 023°27'5 7.9
2015-Aug-31 10:30N 37°27' E 023°32'15 3.7
2015-Aug-31 06:28N 37°42' E 023°35'1111.9
2015-Aug-31 05:33N 37°52' E 023°39'4 4.0
2015-Aug-31 04:33N 37°56' E 023°41'0 0.0
2015-Aug-30 17:13N 37°56' E 023°41'5 7.4
2015-Aug-30 16:33N 37°54' E 023°36'1211.5
2015-Aug-30 15:33N 37°46' E 023°25'1 0.9
2015-Aug-30 14:10N 37°45' E 023°26'0 0.0
2015-Aug-30 13:33N 37°45' E 023°26'9 8.9
2015-Aug-30 12:33N 37°36' E 023°25'6 4.3
2015-Aug-30 11:10N 37°30' E 023°27'5 8.7
2015-Aug-30 10:33N 37°26' E 023°32'8 2.3
2015-Aug-30 07:08N 37°34' E 023°35'712.5
2015-Aug-30 06:33N 37°41' E 023°35'1212.0
2015-Aug-30 05:33N 37°53' E 023°38'4 4.3
2015-Aug-30 04:34N 37°56' E 023°41'0 0.0
2015-Aug-29 17:30N 37°56' E 023°41'4 4.2
2015-Aug-29 16:33N 37°54' E 023°37'1211.6
2015-Aug-29 15:33N 37°47' E 023°26'2 0.8
2015-Aug-29 13:15N 37°45' E 023°25'911.5
2015-Aug-29 12:30N 37°36' E 023°26'9 1.6
2015-Aug-29 06:33N 37°41' E 023°36'1211.8
2015-Aug-29 05:33N 37°53' E 023°40'3 3.4
2015-Aug-29 04:33N 37°56' E 023°41'0 0.0
2015-Aug-28 16:33N 37°56' E 023°41'1111.4
2015-Aug-28 15:33N 37°49' E 023°30'11 3.6
2015-Aug-28 12:33N 37°39' E 023°25'15 6.6
2015-Aug-28 10:17N 37°25' E 023°31'5 6.1
2015-Aug-28 09:31N 37°21' E 023°28'0 0.0
2015-Aug-28 08:31N 37°21' E 023°28'1410.7
2015-Aug-28 07:10N 37°34' E 023°35'812.4
2015-Aug-28 06:32N 37°42' E 023°36'1211.9
2015-Aug-28 05:33N 37°54' E 023°38'3 3.5
2015-Aug-28 04:33N 37°56' E 023°41'0 0.0
2015-Aug-27 17:14N 37°56' E 023°41'6 8.5
2015-Aug-27 16:33N 37°53' E 023°35'1111.2
2015-Aug-27 15:33N 37°45' E 023°25'1 0.3
2015-Aug-27 13:27N 37°45' E 023°25'8 9.0
2015-Aug-27 12:33N 37°37' E 023°26'12 5.7
2015-Aug-27 10:29N 37°26' E 023°32'10 3.1
2015-Aug-27 07:22N 37°35' E 023°35'1012.3
2015-Aug-27 06:32N 37°45' E 023°36'1111.7
2015-Aug-27 05:33N 37°56' E 023°40'1 0.6
2015-Aug-27 04:33N 37°56' E 023°41'0 0.0
2015-Aug-26 17:34N 37°56' E 023°41'4 4.5
2015-Aug-26 16:34N 37°54' E 023°36'1211.6
2015-Aug-26 15:34N 37°46' E 023°25'1 0.6
2015-Aug-26 13:19N 37°45' E 023°26'810.8
2015-Aug-26 12:34N 37°37' E 023°26'10 5.0
2015-Aug-26 10:34N 37°28' E 023°32'14 3.4
2015-Aug-26 06:33N 37°41' E 023°36'1212.0
2015-Aug-26 05:34N 37°53' E 023°39'4 3.8
2015-Aug-26 04:34N 37°56' E 023°41'0 0.0
2015-Aug-26 03:34N 37°56' E 023°41'0 0.0
2015-Aug-26 02:33N 37°56' E 023°41'0 0.0
2015-Aug-26 01:33N 37°56' E 023°41'0 0.0
2015-Aug-26 00:34N 37°56' E 023°41'0 0.0
2015-Aug-25 23:34N 37°56' E 023°41'0 0.0
2015-Aug-25 22:34N 37°56' E 023°41'0 0.0
2015-Aug-25 21:34N 37°56' E 023°41'0 0.0
2015-Aug-25 20:34N 37°56' E 023°41'0 0.0
2015-Aug-25 19:34N 37°56' E 023°41'0 0.0
2015-Aug-25 18:33N 37°56' E 023°41'0 0.0
2015-Aug-25 17:34N 37°56' E 023°41'4 4.0
2015-Aug-25 16:34N 37°54' E 023°37'  

Dump ship's entire track history